Terminal Aerodrome Forecast
Issued by NWS Mt. Holly, NJ

Home | Current Version | Previous Version | Text Only | Print | Product List | Glossary On
Versions: 1 2 3 4 5 6 7 8 9 10 11 12 13 14 15 16 17 18 19 20 21 22 23 24
000
FTUS41 KPHI 240906 AAA
TAFACY
TAF AMD
KACY 240906Z 2409/2506 VRB04KT P6SM VCSH BKN100
     FM241400 07012KT P6SM BKN080
     FM241800 07014KT P6SM BKN070 PROB30 2418/2421 4SM -RA OVC040
     FM242100 07015KT 6SM -RA BR OVC080
     FM242300 07015G23KT 4SM -RA BR OVC025
     FM250500 07013KT 3SM -RA BR OVC008=

USA.gov is the U.S. government's official web portal to all federal, state and local government web resources and services.